sensor_id;sensor_type;location;lat;lon;timestamp;pressure;altitude;pressure_sealevel;temperature;humidity
40994;BME280;26722;43.212;27.932;2023-02-02T00:01:09;55329.34;;;-146.72;58.23
40994;BME280;26722;43.212;27.932;2023-02-02T00:03:34;55323.00;;;-146.72;58.09
40994;BME280;26722;43.212;27.932;2023-02-02T00:06:02;55312.44;;;-146.72;58.05
40994;BME280;26722;43.212;27.932;2023-02-02T00:08:28;55329.34;;;-146.72;58.15
40994;BME280;26722;43.212;27.932;2023-02-02T00:10:53;55316.66;;;-146.72;57.97
40994;BME280;26722;43.212;27.932;2023-02-02T00:13:19;55361.00;;;-146.72;58.09
40994;BME280;26722;43.212;27.932;2023-02-02T00:15:44;55331.44;;;-146.72;58.20
40994;BME280;26722;43.212;27.932;2023-02-02T00:18:10;55312.44;;;-146.72;58.15
40994;BME280;26722;43.212;27.932;2023-02-02T00:20:35;55318.78;;;-146.72;58.12
40994;BME280;26722;43.212;27.932;2023-02-02T00:23:01;55331.44;;;-146.72;58.11
40994;BME280;26722;43.212;27.932;2023-02-02T00:25:27;55331.44;;;-146.72;58.27
40994;BME280;26722;43.212;27.932;2023-02-02T00:27:52;55318.78;;;-146.72;58.23
40994;BME280;26722;43.212;27.932;2023-02-02T00:30:18;55320.88;;;-146.72;58.21
40994;BME280;26722;43.212;27.932;2023-02-02T00:32:43;55344.13;;;-146.72;58.23
40994;BME280;26722;43.212;27.932;2023-02-02T00:35:12;55314.56;;;-146.72;58.28
40994;BME280;26722;43.212;27.932;2023-02-02T00:37:38;55335.66;;;-146.72;58.37
40994;BME280;26722;43.212;27.932;2023-02-02T00:40:04;55331.44;;;-146.72;58.50
40994;BME280;26722;43.212;27.932;2023-02-02T00:42:29;55329.34;;;-146.72;58.54
40994;BME280;26722;43.212;27.932;2023-02-02T00:44:55;55316.66;;;-146.72;58.22
40994;BME280;26722;43.212;27.932;2023-02-02T00:47:39;55329.34;;;-146.72;58.04
40994;BME280;26722;43.212;27.932;2023-02-02T00:50:05;55344.13;;;-146.72;57.92
40994;BME280;26722;43.212;27.932;2023-02-02T00:52:30;55314.56;;;-146.72;57.74
40994;BME280;26722;43.212;27.932;2023-02-02T00:54:56;55327.22;;;-146.72;57.85
40994;BME280;26722;43.212;27.932;2023-02-02T00:57:22;55329.34;;;-146.72;57.63
40994;BME280;26722;43.212;27.932;2023-02-02T00:59:47;55325.13;;;-146.72;57.69
40994;BME280;26722;43.212;27.932;2023-02-02T01:02:13;55306.09;;;-146.72;57.30
40994;BME280;26722;43.212;27.932;2023-02-02T01:04:39;55306.09;;;-146.72;57.00
40994;BME280;26722;43.212;27.932;2023-02-02T01:07:04;55304.00;;;-146.72;56.39
40994;BME280;26722;43.212;27.932;2023-02-02T01:09:30;55325.13;;;-146.72;55.60
40994;BME280;26722;43.212;27.932;2023-02-02T01:11:55;55310.34;;;-146.72;55.74
40994;BME280;26722;43.212;27.932;2023-02-02T01:14:21;55320.88;;;-146.72;55.51
40994;BME280;26722;43.212;27.932;2023-02-02T01:16:46;55318.78;;;-146.72;55.36
40994;BME280;26722;43.212;27.932;2023-02-02T01:19:13;55329.34;;;-146.72;55.33
40994;BME280;26722;43.212;27.932;2023-02-02T01:21:39;55310.34;;;-146.72;55.36
40994;BME280;26722;43.212;27.932;2023-02-02T01:24:04;55306.09;;;-146.72;55.54
40994;BME280;26722;43.212;27.932;2023-02-02T01:26:30;55299.78;;;-146.72;55.53
40994;BME280;26722;43.212;27.932;2023-02-02T01:28:55;55318.78;;;-146.72;55.57
40994;BME280;26722;43.212;27.932;2023-02-02T01:31:21;55314.56;;;-146.72;55.62
40994;BME280;26722;43.212;27.932;2023-02-02T01:33:48;55314.56;;;-146.72;55.55
40994;BME280;26722;43.212;27.932;2023-02-02T01:36:17;55297.66;;;-146.72;55.80
40994;BME280;26722;43.212;27.932;2023-02-02T01:38:43;55318.78;;;-146.72;55.88
40994;BME280;26722;43.212;27.932;2023-02-02T01:41:19;55329.34;;;-146.72;55.85
40994;BME280;26722;43.212;27.932;2023-02-02T01:46:18;55306.09;;;-146.72;55.83
40994;BME280;26722;43.212;27.932;2023-02-02T01:48:55;55314.56;;;-146.72;55.92
40994;BME280;26722;43.212;27.932;2023-02-02T01:51:26;55331.44;;;-146.72;56.10
40994;BME280;26722;43.212;27.932;2023-02-02T01:53:55;55318.78;;;-146.72;56.13
40994;BME280;26722;43.212;27.932;2023-02-02T01:56:41;55306.09;;;-146.72;56.19
40994;BME280;26722;43.212;27.932;2023-02-02T01:59:09;55318.78;;;-146.72;56.27
40994;BME280;26722;43.212;27.932;2023-02-02T02:01:34;55333.56;;;-146.72;56.60
40994;BME280;26722;43.212;27.932;2023-02-02T02:04:00;55306.09;;;-146.72;56.70
40994;BME280;26722;43.212;27.932;2023-02-02T02:06:25;55312.44;;;-146.72;56.70
40994;BME280;26722;43.212;27.932;2023-02-02T02:08:59;55318.78;;;-146.72;56.71
40994;BME280;26722;43.212;27.932;2023-02-02T02:11:27;55310.34;;;-146.72;56.92
40994;BME280;26722;43.212;27.932;2023-02-02T02:13:54;55339.91;;;-146.72;57.24
40994;BME280;26722;43.212;27.932;2023-02-02T02:37:32;55352.56;;;-146.72;58.07
40994;BME280;26722;43.212;27.932;2023-02-02T02:40:18;55335.66;;;-146.72;58.14
40994;BME280;26722;43.212;27.932;2023-02-02T02:42:49;55352.56;;;-146.72;58.12
40994;BME280;26722;43.212;27.932;2023-02-02T02:45:16;55316.66;;;-146.72;58.23
40994;BME280;26722;43.212;27.932;2023-02-02T02:47:43;55320.88;;;-146.72;58.05
40994;BME280;26722;43.212;27.932;2023-02-02T02:50:10;55333.56;;;-146.72;58.12
40994;BME280;26722;43.212;27.932;2023-02-02T02:52:36;55335.66;;;-146.72;58.17
40994;BME280;26722;43.212;27.932;2023-02-02T02:55:04;55331.44;;;-146.72;58.14
40994;BME280;26722;43.212;27.932;2023-02-02T03:03:06;55331.44;;;-146.72;58.12
40994;BME280;26722;43.212;27.932;2023-02-02T03:06:10;55316.66;;;-146.72;57.89
40994;BME280;26722;43.212;27.932;2023-02-02T03:08:44;55323.00;;;-146.72;58.05
40994;BME280;26722;43.212;27.932;2023-02-02T03:11:14;55337.78;;;-146.72;58.10
40994;BME280;26722;43.212;27.932;2023-02-02T03:13:40;55331.44;;;-146.72;58.19
40994;BME280;26722;43.212;27.932;2023-02-02T03:16:07;55329.34;;;-146.72;58.07
40994;BME280;26722;43.212;27.932;2023-02-02T03:18:32;55333.56;;;-146.72;58.04
40994;BME280;26722;43.212;27.932;2023-02-02T03:20:59;55344.13;;;-146.72;58.00
40994;BME280;26722;43.212;27.932;2023-02-02T03:23:24;55314.56;;;-146.72;57.96
40994;BME280;26722;43.212;27.932;2023-02-02T03:25:50;55310.34;;;-146.72;57.76
40994;BME280;26722;43.212;27.932;2023-02-02T03:28:16;55335.66;;;-146.72;57.92
40994;BME280;26722;43.212;27.932;2023-02-02T03:30:43;55314.56;;;-146.72;57.79
40994;BME280;26722;43.212;27.932;2023-02-02T03:33:12;55318.78;;;-146.72;57.79
40994;BME280;26722;43.212;27.932;2023-02-02T03:35:38;55335.66;;;-146.72;58.00
40994;BME280;26722;43.212;27.932;2023-02-02T03:38:04;55327.22;;;-146.72;57.98
40994;BME280;26722;43.212;27.932;2023-02-02T03:40:29;55310.34;;;-146.72;58.00
40994;BME280;26722;43.212;27.932;2023-02-02T03:42:55;55327.22;;;-146.72;58.07
40994;BME280;26722;43.212;27.932;2023-02-02T03:45:20;55356.78;;;-146.72;58.07
40994;BME280;26722;43.212;27.932;2023-02-02T03:47:46;55314.56;;;-146.72;57.92
40994;BME280;26722;43.212;27.932;2023-02-02T03:50:12;55333.56;;;-146.72;58.07
40994;BME280;26722;43.212;27.932;2023-02-02T03:52:38;55352.56;;;-146.72;58.14
40994;BME280;26722;43.212;27.932;2023-02-02T03:55:04;55310.34;;;-146.72;57.93
40994;BME280;26722;43.212;27.932;2023-02-02T03:57:30;55344.13;;;-146.72;58.19
40994;BME280;26722;43.212;27.932;2023-02-02T03:59:55;55318.78;;;-146.72;58.17
40994;BME280;26722;43.212;27.932;2023-02-02T04:02:21;55331.44;;;-146.72;58.14
40994;BME280;26722;43.212;27.932;2023-02-02T04:04:46;55318.78;;;-146.72;58.26
40994;BME280;26722;43.212;27.932;2023-02-02T04:07:12;55339.91;;;-146.72;58.24
40994;BME280;26722;43.212;27.932;2023-02-02T04:09:37;55344.13;;;-146.72;58.30
40994;BME280;26722;43.212;27.932;2023-02-02T04:12:03;55335.66;;;-146.72;58.30
40994;BME280;26722;43.212;27.932;2023-02-02T04:14:28;55331.44;;;-146.72;58.30
40994;BME280;26722;43.212;27.932;2023-02-02T04:16:53;55323.00;;;-146.72;58.56
40994;BME280;26722;43.212;27.932;2023-02-02T04:19:19;55335.66;;;-146.72;58.41
40994;BME280;26722;43.212;27.932;2023-02-02T04:21:44;55318.78;;;-146.72;58.59
40994;BME280;26722;43.212;27.932;2023-02-02T04:24:11;55335.66;;;-146.72;58.65
40994;BME280;26722;43.212;27.932;2023-02-02T04:26:37;55314.56;;;-146.72;58.83
40994;BME280;26722;43.212;27.932;2023-02-02T04:29:02;55354.66;;;-146.72;58.99
40994;BME280;26722;43.212;27.932;2023-02-02T04:31:28;55335.66;;;-146.72;59.06
40994;BME280;26722;43.212;27.932;2023-02-02T04:33:55;55337.78;;;-146.72;59.23
40994;BME280;26722;43.212;27.932;2023-02-02T04:36:21;55327.22;;;-146.72;59.32
40994;BME280;26722;43.212;27.932;2023-02-02T04:38:50;55344.13;;;-146.72;59.53
40994;BME280;26722;43.212;27.932;2023-02-02T04:41:16;55318.78;;;-146.72;59.78
40994;BME280;26722;43.212;27.932;2023-02-02T04:43:43;55339.91;;;-146.72;60.24
40994;BME280;26722;43.212;27.932;2023-02-02T04:46:09;55346.22;;;-146.72;60.59
40994;BME280;26722;43.212;27.932;2023-02-02T04:48:34;55337.78;;;-146.72;60.72
40994;BME280;26722;43.212;27.932;2023-02-02T04:51:02;55333.56;;;-146.72;60.96
40994;BME280;26722;43.212;27.932;2023-02-02T04:53:28;55352.56;;;-146.72;61.08
40994;BME280;26722;43.212;27.932;2023-02-02T04:55:54;55346.22;;;-146.72;61.26
40994;BME280;26722;43.212;27.932;2023-02-02T04:58:20;55356.78;;;-146.72;61.62
40994;BME280;26722;43.212;27.932;2023-02-02T05:00:45;55352.56;;;-146.72;61.92
40994;BME280;26722;43.212;27.932;2023-02-02T05:03:11;55335.66;;;-146.72;61.96
40994;BME280;26722;43.212;27.932;2023-02-02T05:05:36;55316.66;;;-146.72;61.94
40994;BME280;26722;43.212;27.932;2023-02-02T05:08:02;55333.56;;;-146.72;62.04
40994;BME280;26722;43.212;27.932;2023-02-02T05:10:27;55318.78;;;-146.72;61.81
40994;BME280;26722;43.212;27.932;2023-02-02T05:12:53;55354.66;;;-146.72;61.75
40994;BME280;26722;43.212;27.932;2023-02-02T05:15:20;55367.34;;;-146.72;61.70
40994;BME280;26722;43.212;27.932;2023-02-02T05:17:46;55361.00;;;-146.72;61.69
40994;BME280;26722;43.212;27.932;2023-02-02T05:20:12;55318.78;;;-146.72;61.72
40994;BME280;26722;43.212;27.932;2023-02-02T05:22:37;55310.34;;;-146.72;61.81
40994;BME280;26722;43.212;27.932;2023-02-02T05:25:05;55329.34;;;-146.72;61.76
40994;BME280;26722;43.212;27.932;2023-02-02T05:27:30;55348.34;;;-146.72;61.93
40994;BME280;26722;43.212;27.932;2023-02-02T05:29:56;55331.44;;;-146.72;62.05
40994;BME280;26722;43.212;27.932;2023-02-02T05:32:21;55335.66;;;-146.72;61.80
40994;BME280;26722;43.212;27.932;2023-02-02T05:34:47;55348.34;;;-146.72;61.70
40994;BME280;26722;43.212;27.932;2023-02-02T05:37:12;55325.13;;;-146.72;62.00
40994;BME280;26722;43.212;27.932;2023-02-02T05:39:38;55329.34;;;-146.72;61.90
40994;BME280;26722;43.212;27.932;2023-02-02T05:42:03;55337.78;;;-146.72;61.58
40994;BME280;26722;43.212;27.932;2023-02-02T05:44:28;55312.44;;;-146.72;61.95
40994;BME280;26722;43.212;27.932;2023-02-02T05:46:54;55314.56;;;-146.72;61.65
40994;BME280;26722;43.212;27.932;2023-02-02T05:49:19;55323.00;;;-146.72;61.55
40994;BME280;26722;43.212;27.932;2023-02-02T05:51:54;55323.00;;;-146.72;61.46
40994;BME280;26722;43.212;27.932;2023-02-02T05:54:21;55289.22;;;-146.72;61.24
40994;BME280;26722;43.212;27.932;2023-02-02T05:56:48;55339.91;;;-146.72;61.29
40994;BME280;26722;43.212;27.932;2023-02-02T05:59:15;55327.22;;;-146.72;61.23
40994;BME280;26722;43.212;27.932;2023-02-02T06:01:42;55323.00;;;-146.72;61.22
40994;BME280;26722;43.212;27.932;2023-02-02T06:04:07;55331.44;;;-146.72;61.13
40994;BME280;26722;43.212;27.932;2023-02-02T06:06:33;55323.00;;;-146.72;60.70
40994;BME280;26722;43.212;27.932;2023-02-02T06:09:00;55327.22;;;-146.72;60.68
40994;BME280;26722;43.212;27.932;2023-02-02T06:11:25;55318.78;;;-146.72;60.31
40994;BME280;26722;43.212;27.932;2023-02-02T06:13:51;55337.78;;;-146.72;60.22
40994;BME280;26722;43.212;27.932;2023-02-02T06:16:16;55306.09;;;-146.72;59.27
40994;BME280;26722;43.212;27.932;2023-02-02T06:18:42;55299.78;;;-146.72;59.17
40994;BME280;26722;43.212;27.932;2023-02-02T06:21:08;55297.66;;;-146.72;58.69
40994;BME280;26722;43.212;27.932;2023-02-02T06:23:34;55301.88;;;-146.72;58.58
40994;BME280;26722;43.212;27.932;2023-02-02T06:26:00;55299.78;;;-146.72;58.55
40994;BME280;26722;43.212;27.932;2023-02-02T06:28:28;55289.22;;;-146.72;58.20
40994;BME280;26722;43.212;27.932;2023-02-02T06:30:54;55280.78;;;-146.72;57.60
40994;BME280;26722;43.212;27.932;2023-02-02T06:33:19;55299.78;;;-146.72;57.35
40994;BME280;26722;43.212;27.932;2023-02-02T06:35:44;55274.44;;;-146.72;56.95
40994;BME280;26722;43.212;27.932;2023-02-02T06:38:10;55297.66;;;-146.72;56.84
40994;BME280;26722;43.212;27.932;2023-02-02T06:40:35;55263.88;;;-146.72;56.60
40994;BME280;26722;43.212;27.932;2023-02-02T06:43:02;55285.00;;;-146.72;56.56
40994;BME280;26722;43.212;27.932;2023-02-02T06:45:29;55285.00;;;-146.72;56.30
40994;BME280;26722;43.212;27.932;2023-02-02T06:47:59;55238.53;;;-146.72;56.43
40994;BME280;26722;43.212;27.932;2023-02-02T06:50:27;55268.09;;;-146.72;56.31
40994;BME280;26722;43.212;27.932;2023-02-02T06:52:53;55280.78;;;-146.72;56.29
40994;BME280;26722;43.212;27.932;2023-02-02T06:55:18;55251.22;;;-146.72;56.08
40994;BME280;26722;43.212;27.932;2023-02-02T06:57:45;55295.56;;;-146.72;55.84
40994;BME280;26722;43.212;27.932;2023-02-02T07:00:11;55282.88;;;-146.72;56.07
40994;BME280;26722;43.212;27.932;2023-02-02T07:02:37;55266.00;;;-146.72;56.32
40994;BME280;26722;43.212;27.932;2023-02-02T07:05:03;55268.09;;;-146.72;55.97
40994;BME280;26722;43.212;27.932;2023-02-02T07:07:33;55266.00;;;-146.72;56.15
40994;BME280;26722;43.212;27.932;2023-02-02T07:09:59;55280.78;;;-146.72;56.36
40994;BME280;26722;43.212;27.932;2023-02-02T07:12:25;55263.88;;;-146.72;55.92
40994;BME280;26722;43.212;27.932;2023-02-02T07:14:51;55253.31;;;-146.72;55.57
40994;BME280;26722;43.212;27.932;2023-02-02T07:17:17;55266.00;;;-146.72;55.57
40994;BME280;26722;43.212;27.932;2023-02-02T07:19:42;55274.44;;;-146.72;55.20
40994;BME280;26722;43.212;27.932;2023-02-02T07:22:07;55253.31;;;-146.72;55.05
40994;BME280;26722;43.212;27.932;2023-02-02T07:24:33;55274.44;;;-146.72;54.76
40994;BME280;26722;43.212;27.932;2023-02-02T07:26:58;55282.88;;;-146.72;54.37
40994;BME280;26722;43.212;27.932;2023-02-02T07:29:24;55268.09;;;-146.72;54.52
40994;BME280;26722;43.212;27.932;2023-02-02T07:31:50;55280.78;;;-146.72;54.17
40994;BME280;26722;43.212;27.932;2023-02-02T07:34:15;55259.66;;;-146.72;55.00
40994;BME280;26722;43.212;27.932;2023-02-02T07:36:41;55253.31;;;-146.72;54.72
40994;BME280;26722;43.212;27.932;2023-02-02T07:39:06;55280.78;;;-146.72;54.28
40994;BME280;26722;43.212;27.932;2023-02-02T07:41:35;55268.09;;;-146.72;54.53
40994;BME280;26722;43.212;27.932;2023-02-02T07:44:01;55263.88;;;-146.72;54.25
40994;BME280;26722;43.212;27.932;2023-02-02T07:46:26;55247.00;;;-146.72;54.27
40994;BME280;26722;43.212;27.932;2023-02-02T07:48:53;55251.22;;;-146.72;53.94
40994;BME280;26722;43.212;27.932;2023-02-02T07:51:23;55242.78;;;-146.72;54.34
40994;BME280;26722;43.212;27.932;2023-02-02T07:53:53;55257.56;;;-146.72;53.98
40994;BME280;26722;43.212;27.932;2023-02-02T07:56:24;55255.44;;;-146.72;54.03
40994;BME280;26722;43.212;27.932;2023-02-02T07:58:54;55249.09;;;-146.72;53.97
40994;BME280;26722;43.212;27.932;2023-02-02T08:01:20;55261.78;;;-146.72;53.70
40994;BME280;26722;43.212;27.932;2023-02-02T08:03:47;55240.66;;;-146.72;53.21
40994;BME280;26722;43.212;27.932;2023-02-02T08:06:27;55242.78;;;-146.72;52.88
40994;BME280;26722;43.212;27.932;2023-02-02T08:08:54;55225.88;;;-146.72;52.93
40994;BME280;26722;43.212;27.932;2023-02-02T08:11:20;55268.09;;;-146.72;52.87
40994;BME280;26722;43.212;27.932;2023-02-02T08:13:51;55251.22;;;-146.72;52.98
40994;BME280;26722;43.212;27.932;2023-02-02T08:16:17;55255.44;;;-146.72;52.62
40994;BME280;26722;43.212;27.932;2023-02-02T08:18:43;55234.31;;;-146.72;52.45
40994;BME280;26722;43.212;27.932;2023-02-02T08:21:09;55230.09;;;-146.72;52.09
40994;BME280;26722;43.212;27.932;2023-02-02T08:23:36;55249.09;;;-146.72;51.71
40994;BME280;26722;43.212;27.932;2023-02-02T08:28:37;55234.31;;;-146.72;51.38
40994;BME280;26722;43.212;27.932;2023-02-02T08:31:10;55234.31;;;-146.72;51.22
40994;BME280;26722;43.212;27.932;2023-02-02T08:33:36;55242.78;;;-146.72;51.38
40994;BME280;26722;43.212;27.932;2023-02-02T08:36:02;55242.78;;;-146.72;51.65
40994;BME280;26722;43.212;27.932;2023-02-02T08:38:28;55238.53;;;-146.72;51.25
40994;BME280;26722;43.212;27.932;2023-02-02T08:40:53;55228.00;;;-146.72;50.94
40994;BME280;26722;43.212;27.932;2023-02-02T08:43:19;55223.78;;;-146.72;50.04
40994;BME280;26722;43.212;27.932;2023-02-02T08:45:44;55225.88;;;-146.72;50.02
40994;BME280;26722;43.212;27.932;2023-02-02T08:48:09;55238.53;;;-146.72;49.72
40994;BME280;26722;43.212;27.932;2023-02-02T08:50:35;55213.22;;;-146.72;49.69
40994;BME280;26722;43.212;27.932;2023-02-02T08:53:00;55217.44;;;-146.72;49.63
40994;BME280;26722;43.212;27.932;2023-02-02T08:55:26;55232.22;;;-146.72;49.39
40994;BME280;26722;43.212;27.932;2023-02-02T08:57:51;55213.22;;;-146.72;49.81
40994;BME280;26722;43.212;27.932;2023-02-02T09:00:17;55221.66;;;-146.72;49.56
40994;BME280;26722;43.212;27.932;2023-02-02T09:02:43;55221.66;;;-146.72;49.76
40994;BME280;26722;43.212;27.932;2023-02-02T09:05:08;55215.31;;;-146.72;49.44
40994;BME280;26722;43.212;27.932;2023-02-02T09:07:34;55196.31;;;-146.72;48.82
40994;BME280;26722;43.212;27.932;2023-02-02T09:09:59;55206.88;;;-146.72;48.35
40994;BME280;26722;43.212;27.932;2023-02-02T09:12:25;55204.75;;;-146.72;48.40
40994;BME280;26722;43.212;27.932;2023-02-02T09:14:50;55213.22;;;-146.72;47.82
40994;BME280;26722;43.212;27.932;2023-02-02T09:17:16;55196.31;;;-146.72;48.07
40994;BME280;26722;43.212;27.932;2023-02-02T09:19:41;55221.66;;;-146.72;48.22
40994;BME280;26722;43.212;27.932;2023-02-02T09:22:07;55204.75;;;-146.72;48.27
40994;BME280;26722;43.212;27.932;2023-02-02T09:24:32;55230.09;;;-146.72;48.12
40994;BME280;26722;43.212;27.932;2023-02-02T09:26:57;55209.00;;;-146.72;48.49
40994;BME280;26722;43.212;27.932;2023-02-02T09:29:23;55192.09;;;-146.72;48.33
40994;BME280;26722;43.212;27.932;2023-02-02T09:31:48;55209.00;;;-146.72;48.00
40994;BME280;26722;43.212;27.932;2023-02-02T09:34:14;55200.53;;;-146.72;47.77
40994;BME280;26722;43.212;27.932;2023-02-02T09:36:41;55209.00;;;-146.72;48.24
40994;BME280;26722;43.212;27.932;2023-02-02T09:39:08;55202.66;;;-146.72;48.06
40994;BME280;26722;43.212;27.932;2023-02-02T09:44:05;55213.22;;;-146.72;47.85
40994;BME280;26722;43.212;27.932;2023-02-02T09:49:30;55217.44;;;-146.72;48.24
40994;BME280;26722;43.212;27.932;2023-02-02T09:52:03;55204.75;;;-146.72;48.10
40994;BME280;26722;43.212;27.932;2023-02-02T09:54:37;55185.75;;;-146.72;47.49
40994;BME280;26722;43.212;27.932;2023-02-02T09:57:16;55187.88;;;-146.72;47.04
40994;BME280;26722;43.212;27.932;2023-02-02T09:59:44;55185.75;;;-146.72;46.58
40994;BME280;26722;43.212;27.932;2023-02-02T10:02:24;55196.31;;;-146.72;46.97
40994;BME280;26722;43.212;27.932;2023-02-02T10:05:01;55213.22;;;-146.72;47.06
40994;BME280;26722;43.212;27.932;2023-02-02T10:07:33;55202.66;;;-146.72;47.04
40994;BME280;26722;43.212;27.932;2023-02-02T10:10:04;55183.66;;;-146.72;46.44
40994;BME280;26722;43.212;27.932;2023-02-02T10:13:02;55204.75;;;-146.72;46.89
40994;BME280;26722;43.212;27.932;2023-02-02T10:21:00;55204.75;;;-146.72;46.71
40994;BME280;26722;43.212;27.932;2023-02-02T10:23:27;55194.22;;;-146.72;46.83
40994;BME280;26722;43.212;27.932;2023-02-02T10:34:43;55204.75;;;-146.72;45.45
40994;BME280;26722;43.212;27.932;2023-02-02T10:37:20;55206.88;;;-146.72;44.63
40994;BME280;26722;43.212;27.932;2023-02-02T10:48:40;55198.44;;;-146.72;44.88
40994;BME280;26722;43.212;27.932;2023-02-02T10:51:17;55190.00;;;-146.72;44.98
40994;BME280;26722;43.212;27.932;2023-02-02T10:53:51;55211.09;;;-146.72;44.90
40994;BME280;26722;43.212;27.932;2023-02-02T10:56:39;55209.00;;;-146.72;45.23
40994;BME280;26722;43.212;27.932;2023-02-02T10:59:18;55204.75;;;-146.72;45.53
40994;BME280;26722;43.212;27.932;2023-02-02T11:01:46;55206.88;;;-146.72;45.53
40994;BME280;26722;43.212;27.932;2023-02-02T11:04:12;55198.44;;;-146.72;45.38
40994;BME280;26722;43.212;27.932;2023-02-02T11:06:57;55196.31;;;-146.72;44.76
40994;BME280;26722;43.212;27.932;2023-02-02T11:09:30;55162.53;;;-146.72;43.67
40994;BME280;26722;43.212;27.932;2023-02-02T11:12:04;55149.88;;;-146.72;43.17
40994;BME280;26722;43.212;27.932;2023-02-02T11:14:44;55158.31;;;-146.72;42.65
40994;BME280;26722;43.212;27.932;2023-02-02T11:17:31;55158.31;;;-146.72;42.33
40994;BME280;26722;43.212;27.932;2023-02-02T11:19:58;55145.66;;;-146.72;42.33
40994;BME280;26722;43.212;27.932;2023-02-02T11:22:30;55154.09;;;-146.72;42.12
40994;BME280;26722;43.212;27.932;2023-02-02T11:25:00;55154.09;;;-146.72;42.36
40994;BME280;26722;43.212;27.932;2023-02-02T11:27:38;55175.22;;;-146.72;41.19
40994;BME280;26722;43.212;27.932;2023-02-02T11:30:29;55183.66;;;-146.72;41.67
40994;BME280;26722;43.212;27.932;2023-02-02T11:32:56;55175.22;;;-146.72;41.22
40994;BME280;26722;43.212;27.932;2023-02-02T11:35:24;55160.44;;;-146.72;40.84
40994;BME280;26722;43.212;27.932;2023-02-02T11:37:57;55187.88;;;-146.72;40.98
40994;BME280;26722;43.212;27.932;2023-02-02T11:43:39;55162.53;;;-146.72;41.13
40994;BME280;26722;43.212;27.932;2023-02-02T11:46:21;55187.88;;;-146.72;42.06
40994;BME280;26722;43.212;27.932;2023-02-02T11:49:01;55179.44;;;-146.72;42.47
40994;BME280;26722;43.212;27.932;2023-02-02T11:51:28;55173.09;;;-146.72;42.52
40994;BME280;26722;43.212;27.932;2023-02-02T11:54:03;55187.88;;;-146.72;43.21
40994;BME280;26722;43.212;27.932;2023-02-02T11:56:34;55190.00;;;-146.72;43.14
40994;BME280;26722;43.212;27.932;2023-02-02T11:59:01;55173.09;;;-146.72;42.61
40994;BME280;26722;43.212;27.932;2023-02-02T12:01:31;55187.88;;;-146.72;42.26
40994;BME280;26722;43.212;27.932;2023-02-02T12:04:01;55154.09;;;-146.72;42.14
40994;BME280;26722;43.212;27.932;2023-02-02T12:06:37;55175.22;;;-146.72;41.99
40994;BME280;26722;43.212;27.932;2023-02-02T12:09:13;55168.88;;;-146.72;41.62
40994;BME280;26722;43.212;27.932;2023-02-02T12:14:31;55154.09;;;-146.72;41.95
40994;BME280;26722;43.212;27.932;2023-02-02T12:31:49;55179.44;;;-146.72;42.14
40994;BME280;26722;43.212;27.932;2023-02-02T12:34:40;55158.31;;;-146.72;41.95
40994;BME280;26722;43.212;27.932;2023-02-02T12:45:36;55194.22;;;-146.72;41.99
40994;BME280;26722;43.212;27.932;2023-02-02T12:50:53;55179.44;;;-146.72;42.10
40994;BME280;26722;43.212;27.932;2023-02-02T13:05:01;55158.31;;;-146.72;42.51
40994;BME280;26722;43.212;27.932;2023-02-02T13:12:36;55175.22;;;-146.72;42.22
40994;BME280;26722;43.212;27.932;2023-02-02T13:15:06;55149.88;;;-146.72;42.47
40994;BME280;26722;43.212;27.932;2023-02-02T13:17:46;55166.75;;;-146.72;42.46
40994;BME280;26722;43.212;27.932;2023-02-02T13:20:26;55132.97;;;-146.72;42.63
40994;BME280;26722;43.212;27.932;2023-02-02T13:22:58;55170.97;;;-146.72;42.41
40994;BME280;26722;43.212;27.932;2023-02-02T13:25:29;55160.44;;;-146.72;42.65
40994;BME280;26722;43.212;27.932;2023-02-02T13:27:58;55181.53;;;-146.72;42.89
40994;BME280;26722;43.212;27.932;2023-02-02T13:30:31;55179.44;;;-146.72;43.19
40994;BME280;26722;43.212;27.932;2023-02-02T13:33:05;55204.75;;;-146.72;43.09
40994;BME280;26722;43.212;27.932;2023-02-02T13:36:45;55162.53;;;-146.72;43.41
40994;BME280;26722;43.212;27.932;2023-02-02T13:38:38;55183.66;;;-146.72;43.02
40994;BME280;26722;43.212;27.932;2023-02-02T13:41:09;55166.75;;;-146.72;43.12
40994;BME280;26722;43.212;27.932;2023-02-02T13:44:00;55183.66;;;-146.72;43.16
40994;BME280;26722;43.212;27.932;2023-02-02T13:51:59;55164.66;;;-146.72;41.81
40994;BME280;26722;43.212;27.932;2023-02-02T14:00:18;55166.75;;;-146.72;41.10
40994;BME280;26722;43.212;27.932;2023-02-02T14:02:57;55166.75;;;-146.72;41.20
40994;BME280;26722;43.212;27.932;2023-02-02T14:08:17;55192.09;;;-146.72;41.38
40994;BME280;26722;43.212;27.932;2023-02-02T14:13:23;55183.66;;;-146.72;41.49
40994;BME280;26722;43.212;27.932;2023-02-02T14:16:40;55179.44;;;-146.72;41.64
40994;BME280;26722;43.212;27.932;2023-02-02T14:48:38;55187.88;;;-146.72;40.57
40994;BME280;26722;43.212;27.932;2023-02-02T14:53:39;55173.09;;;-146.72;40.54
40994;BME280;26722;43.212;27.932;2023-02-02T14:56:15;55175.22;;;-146.72;42.82
40994;BME280;26722;43.212;27.932;2023-02-02T14:58:58;55204.75;;;-146.72;48.99
40994;BME280;26722;43.212;27.932;2023-02-02T15:01:28;55213.22;;;-146.72;56.67
40994;BME280;26722;43.212;27.932;2023-02-02T15:06:35;55234.31;;;-146.72;61.52
40994;BME280;26722;43.212;27.932;2023-02-02T15:14:35;55276.56;;;-146.72;67.98
40994;BME280;26722;43.212;27.932;2023-02-02T15:25:58;55259.66;;;-146.72;68.75
40994;BME280;26722;43.212;27.932;2023-02-02T15:34:10;55272.31;;;-146.72;70.57
40994;BME280;26722;43.212;27.932;2023-02-02T15:36:41;55272.31;;;-146.72;70.69
40994;BME280;26722;43.212;27.932;2023-02-02T15:41:51;55251.22;;;-146.72;70.23